sensor_id;sensor_type;location;lat;lon;timestamp;P1;durP1;ratioP1;P2;durP2;ratioP2
5127;SDS011;2582;48.770;9.190;2023-09-12T00:00:47;9.30;;;8.40;;
5127;SDS011;2582;48.770;9.190;2023-09-12T00:03:12;12.00;;;8.97;;
5127;SDS011;2582;48.770;9.190;2023-09-12T00:05:38;11.10;;;9.27;;
5127;SDS011;2582;48.770;9.190;2023-09-12T00:08:04;14.30;;;10.17;;
5127;SDS011;2582;48.770;9.190;2023-09-12T00:10:30;13.37;;;8.73;;
5127;SDS011;2582;48.770;9.190;2023-09-12T00:12:56;13.37;;;8.33;;
5127;SDS011;2582;48.770;9.190;2023-09-12T00:15:21;10.90;;;9.13;;
5127;SDS011;2582;48.770;9.190;2023-09-12T00:17:47;10.53;;;9.40;;
5127;SDS011;2582;48.770;9.190;2023-09-12T00:20:15;10.63;;;9.30;;
5127;SDS011;2582;48.770;9.190;2023-09-12T00:22:41;9.17;;;8.27;;
5127;SDS011;2582;48.770;9.190;2023-09-12T00:25:06;10.73;;;9.23;;
5127;SDS011;2582;48.770;9.190;2023-09-12T00:27:32;10.63;;;9.57;;
5127;SDS011;2582;48.770;9.190;2023-09-12T00:29:58;13.07;;;9.37;;
5127;SDS011;2582;48.770;9.190;2023-09-12T00:32:23;13.33;;;9.70;;
5127;SDS011;2582;48.770;9.190;2023-09-12T00:34:49;12.67;;;8.70;;
5127;SDS011;2582;48.770;9.190;2023-09-12T00:37:14;9.87;;;8.80;;
5127;SDS011;2582;48.770;9.190;2023-09-12T00:39:40;11.77;;;9.40;;
5127;SDS011;2582;48.770;9.190;2023-09-12T00:42:05;9.87;;;8.90;;
5127;SDS011;2582;48.770;9.190;2023-09-12T00:44:32;10.33;;;8.83;;
5127;SDS011;2582;48.770;9.190;2023-09-12T00:46:58;10.53;;;9.07;;
5127;SDS011;2582;48.770;9.190;2023-09-12T00:49:25;12.60;;;10.00;;
5127;SDS011;2582;48.770;9.190;2023-09-12T00:51:53;12.10;;;9.00;;
5127;SDS011;2582;48.770;9.190;2023-09-12T00:54:21;11.10;;;10.10;;
5127;SDS011;2582;48.770;9.190;2023-09-12T00:56:46;9.83;;;8.80;;
5127;SDS011;2582;48.770;9.190;2023-09-12T00:59:12;13.70;;;11.00;;
5127;SDS011;2582;48.770;9.190;2023-09-12T01:01:41;10.90;;;9.90;;
5127;SDS011;2582;48.770;9.190;2023-09-12T01:04:07;13.00;;;10.03;;
5127;SDS011;2582;48.770;9.190;2023-09-12T01:06:33;12.47;;;9.83;;
5127;SDS011;2582;48.770;9.190;2023-09-12T01:08:59;12.33;;;10.80;;
5127;SDS011;2582;48.770;9.190;2023-09-12T01:11:25;11.27;;;10.10;;
5127;SDS011;2582;48.770;9.190;2023-09-12T01:13:51;11.33;;;9.00;;
5127;SDS011;2582;48.770;9.190;2023-09-12T01:16:17;11.10;;;10.07;;
5127;SDS011;2582;48.770;9.190;2023-09-12T01:18:43;15.87;;;10.83;;
5127;SDS011;2582;48.770;9.190;2023-09-12T01:24:49;11.50;;;10.37;;
5127;SDS011;2582;48.770;9.190;2023-09-12T01:27:37;11.43;;;9.37;;
5127;SDS011;2582;48.770;9.190;2023-09-12T01:30:10;14.63;;;10.97;;
5127;SDS011;2582;48.770;9.190;2023-09-12T01:32:37;12.87;;;10.40;;
5127;SDS011;2582;48.770;9.190;2023-09-12T01:35:04;10.00;;;9.00;;
5127;SDS011;2582;48.770;9.190;2023-09-12T01:37:30;12.13;;;10.60;;
5127;SDS011;2582;48.770;9.190;2023-09-12T01:39:56;13.43;;;10.43;;
5127;SDS011;2582;48.770;9.190;2023-09-12T01:42:22;14.63;;;10.47;;
5127;SDS011;2582;48.770;9.190;2023-09-12T01:44:50;10.17;;;9.27;;
5127;SDS011;2582;48.770;9.190;2023-09-12T01:47:19;10.13;;;8.93;;
5127;SDS011;2582;48.770;9.190;2023-09-12T01:49:47;11.47;;;10.30;;
5127;SDS011;2582;48.770;9.190;2023-09-12T01:52:16;15.13;;;9.40;;
5127;SDS011;2582;48.770;9.190;2023-09-12T01:54:42;10.93;;;9.70;;
5127;SDS011;2582;48.770;9.190;2023-09-12T01:57:09;12.10;;;9.70;;
5127;SDS011;2582;48.770;9.190;2023-09-12T01:59:36;10.90;;;9.30;;
5127;SDS011;2582;48.770;9.190;2023-09-12T02:02:01;11.57;;;10.30;;
5127;SDS011;2582;48.770;9.190;2023-09-12T02:04:27;12.00;;;8.63;;
5127;SDS011;2582;48.770;9.190;2023-09-12T02:06:52;9.10;;;8.17;;
5127;SDS011;2582;48.770;9.190;2023-09-12T02:09:18;11.93;;;9.83;;
5127;SDS011;2582;48.770;9.190;2023-09-12T02:11:44;9.63;;;8.73;;
5127;SDS011;2582;48.770;9.190;2023-09-12T02:14:09;10.97;;;9.00;;
5127;SDS011;2582;48.770;9.190;2023-09-12T02:16:36;10.27;;;9.27;;
5127;SDS011;2582;48.770;9.190;2023-09-12T02:19:05;13.90;;;9.97;;
5127;SDS011;2582;48.770;9.190;2023-09-12T02:21:31;10.90;;;9.30;;
5127;SDS011;2582;48.770;9.190;2023-09-12T02:23:57;10.30;;;9.30;;
5127;SDS011;2582;48.770;9.190;2023-09-12T02:26:22;11.07;;;8.70;;
5127;SDS011;2582;48.770;9.190;2023-09-12T02:28:48;11.50;;;9.63;;
5127;SDS011;2582;48.770;9.190;2023-09-12T02:31:13;12.37;;;10.27;;
5127;SDS011;2582;48.770;9.190;2023-09-12T02:33:39;10.47;;;9.40;;
5127;SDS011;2582;48.770;9.190;2023-09-12T02:36:05;10.83;;;8.77;;
5127;SDS011;2582;48.770;9.190;2023-09-12T02:38:31;11.00;;;9.93;;
5127;SDS011;2582;48.770;9.190;2023-09-12T02:40:57;11.37;;;10.10;;
5127;SDS011;2582;48.770;9.190;2023-09-12T02:43:23;10.00;;;9.10;;
5127;SDS011;2582;48.770;9.190;2023-09-12T02:45:48;12.87;;;11.00;;
5127;SDS011;2582;48.770;9.190;2023-09-12T02:48:14;13.50;;;10.47;;
5127;SDS011;2582;48.770;9.190;2023-09-12T02:50:39;11.30;;;9.77;;
5127;SDS011;2582;48.770;9.190;2023-09-12T02:53:05;10.63;;;9.50;;
5127;SDS011;2582;48.770;9.190;2023-09-12T02:55:31;10.03;;;8.13;;
5127;SDS011;2582;48.770;9.190;2023-09-12T02:57:57;12.67;;;8.90;;
5127;SDS011;2582;48.770;9.190;2023-09-12T03:00:23;10.50;;;9.50;;
5127;SDS011;2582;48.770;9.190;2023-09-12T03:02:48;10.53;;;9.43;;
5127;SDS011;2582;48.770;9.190;2023-09-12T03:05:14;12.43;;;10.03;;
5127;SDS011;2582;48.770;9.190;2023-09-12T03:07:39;10.77;;;9.20;;
5127;SDS011;2582;48.770;9.190;2023-09-12T03:10:05;10.53;;;9.33;;
5127;SDS011;2582;48.770;9.190;2023-09-12T03:12:31;12.07;;;10.40;;
5127;SDS011;2582;48.770;9.190;2023-09-12T03:14:56;10.93;;;9.93;;
5127;SDS011;2582;48.770;9.190;2023-09-12T03:17:22;13.97;;;9.60;;
5127;SDS011;2582;48.770;9.190;2023-09-12T03:19:47;12.43;;;10.80;;
5127;SDS011;2582;48.770;9.190;2023-09-12T03:22:13;10.10;;;9.20;;
5127;SDS011;2582;48.770;9.190;2023-09-12T03:24:39;10.90;;;9.90;;
5127;SDS011;2582;48.770;9.190;2023-09-12T03:27:04;12.17;;;10.43;;
5127;SDS011;2582;48.770;9.190;2023-09-12T03:29:30;11.40;;;10.13;;
5127;SDS011;2582;48.770;9.190;2023-09-12T03:31:55;12.80;;;10.17;;
5127;SDS011;2582;48.770;9.190;2023-09-12T03:34:21;12.20;;;11.00;;
5127;SDS011;2582;48.770;9.190;2023-09-12T03:36:46;12.13;;;10.37;;
5127;SDS011;2582;48.770;9.190;2023-09-12T03:39:12;14.30;;;11.83;;
5127;SDS011;2582;48.770;9.190;2023-09-12T03:41:38;11.83;;;10.47;;
5127;SDS011;2582;48.770;9.190;2023-09-12T03:44:04;10.77;;;9.70;;
5127;SDS011;2582;48.770;9.190;2023-09-12T03:46:30;12.57;;;10.00;;
5127;SDS011;2582;48.770;9.190;2023-09-12T03:48:55;11.27;;;10.07;;
5127;SDS011;2582;48.770;9.190;2023-09-12T03:51:21;10.83;;;9.83;;
5127;SDS011;2582;48.770;9.190;2023-09-12T03:53:47;11.13;;;9.87;;
5127;SDS011;2582;48.770;9.190;2023-09-12T03:56:14;13.27;;;10.57;;
5127;SDS011;2582;48.770;9.190;2023-09-12T03:58:40;15.73;;;11.03;;
5127;SDS011;2582;48.770;9.190;2023-09-12T04:01:06;17.33;;;11.43;;
5127;SDS011;2582;48.770;9.190;2023-09-12T04:03:31;11.90;;;10.67;;
5127;SDS011;2582;48.770;9.190;2023-09-12T04:05:57;11.70;;;10.27;;
5127;SDS011;2582;48.770;9.190;2023-09-12T04:08:22;12.43;;;10.73;;
5127;SDS011;2582;48.770;9.190;2023-09-12T04:10:48;15.77;;;12.50;;
5127;SDS011;2582;48.770;9.190;2023-09-12T04:13:14;13.87;;;10.40;;
5127;SDS011;2582;48.770;9.190;2023-09-12T04:15:39;11.90;;;10.23;;
5127;SDS011;2582;48.770;9.190;2023-09-12T04:18:05;11.33;;;10.30;;
5127;SDS011;2582;48.770;9.190;2023-09-12T04:20:30;13.03;;;10.70;;
5127;SDS011;2582;48.770;9.190;2023-09-12T04:22:56;11.63;;;10.33;;
5127;SDS011;2582;48.770;9.190;2023-09-12T04:25:22;14.30;;;10.83;;
5127;SDS011;2582;48.770;9.190;2023-09-12T04:27:47;11.87;;;10.43;;
5127;SDS011;2582;48.770;9.190;2023-09-12T04:30:13;12.57;;;10.27;;
5127;SDS011;2582;48.770;9.190;2023-09-12T04:32:38;13.23;;;11.90;;
5127;SDS011;2582;48.770;9.190;2023-09-12T04:35:04;11.00;;;9.90;;
5127;SDS011;2582;48.770;9.190;2023-09-12T04:37:30;12.03;;;10.83;;
5127;SDS011;2582;48.770;9.190;2023-09-12T04:39:55;11.83;;;10.70;;
5127;SDS011;2582;48.770;9.190;2023-09-12T04:42:22;15.13;;;11.77;;
5127;SDS011;2582;48.770;9.190;2023-09-12T04:44:47;11.47;;;9.33;;
5127;SDS011;2582;48.770;9.190;2023-09-12T04:47:13;13.67;;;10.90;;
5127;SDS011;2582;48.770;9.190;2023-09-12T04:49:39;10.87;;;9.83;;
5127;SDS011;2582;48.770;9.190;2023-09-12T04:52:05;11.53;;;10.43;;
5127;SDS011;2582;48.770;9.190;2023-09-12T04:54:31;11.10;;;9.90;;
5127;SDS011;2582;48.770;9.190;2023-09-12T04:56:57;11.77;;;10.70;;
5127;SDS011;2582;48.770;9.190;2023-09-12T04:59:22;13.20;;;11.67;;
5127;SDS011;2582;48.770;9.190;2023-09-12T05:01:48;13.03;;;11.23;;
5127;SDS011;2582;48.770;9.190;2023-09-12T05:04:14;12.40;;;11.17;;
5127;SDS011;2582;48.770;9.190;2023-09-12T05:06:39;11.13;;;10.03;;
5127;SDS011;2582;48.770;9.190;2023-09-12T05:09:05;12.20;;;11.03;;
5127;SDS011;2582;48.770;9.190;2023-09-12T05:11:33;14.13;;;11.60;;
5127;SDS011;2582;48.770;9.190;2023-09-12T05:14:00;13.27;;;11.73;;
5127;SDS011;2582;48.770;9.190;2023-09-12T05:16:28;12.23;;;10.97;;
5127;SDS011;2582;48.770;9.190;2023-09-12T05:18:54;14.73;;;11.67;;
5127;SDS011;2582;48.770;9.190;2023-09-12T05:21:20;11.60;;;10.50;;
5127;SDS011;2582;48.770;9.190;2023-09-12T05:23:45;12.10;;;10.90;;
5127;SDS011;2582;48.770;9.190;2023-09-12T05:26:11;13.43;;;12.10;;
5127;SDS011;2582;48.770;9.190;2023-09-12T05:28:36;12.03;;;11.03;;
5127;SDS011;2582;48.770;9.190;2023-09-12T05:31:02;11.57;;;10.37;;
5127;SDS011;2582;48.770;9.190;2023-09-12T05:33:28;13.70;;;10.97;;
5127;SDS011;2582;48.770;9.190;2023-09-12T05:35:53;13.07;;;11.77;;
5127;SDS011;2582;48.770;9.190;2023-09-12T05:38:19;15.60;;;12.03;;
5127;SDS011;2582;48.770;9.190;2023-09-12T05:40:45;14.10;;;11.00;;
5127;SDS011;2582;48.770;9.190;2023-09-12T05:43:11;13.33;;;12.03;;
5127;SDS011;2582;48.770;9.190;2023-09-12T05:45:36;14.97;;;10.63;;
5127;SDS011;2582;48.770;9.190;2023-09-12T05:48:02;13.07;;;11.77;;
5127;SDS011;2582;48.770;9.190;2023-09-12T05:50:29;12.77;;;11.20;;
5127;SDS011;2582;48.770;9.190;2023-09-12T05:52:55;11.90;;;10.67;;
5127;SDS011;2582;48.770;9.190;2023-09-12T05:55:21;12.93;;;10.50;;
5127;SDS011;2582;48.770;9.190;2023-09-12T05:57:48;11.40;;;10.30;;
5127;SDS011;2582;48.770;9.190;2023-09-12T06:00:17;12.30;;;10.70;;
5127;SDS011;2582;48.770;9.190;2023-09-12T06:02:43;14.33;;;11.53;;
5127;SDS011;2582;48.770;9.190;2023-09-12T06:05:08;13.50;;;10.80;;
5127;SDS011;2582;48.770;9.190;2023-09-12T06:07:34;12.93;;;11.70;;
5127;SDS011;2582;48.770;9.190;2023-09-12T06:10:00;14.30;;;12.10;;
5127;SDS011;2582;48.770;9.190;2023-09-12T06:12:26;12.27;;;11.10;;
5127;SDS011;2582;48.770;9.190;2023-09-12T06:14:52;11.60;;;10.40;;
5127;SDS011;2582;48.770;9.190;2023-09-12T06:17:21;14.40;;;11.10;;
5127;SDS011;2582;48.770;9.190;2023-09-12T06:19:47;12.23;;;11.10;;
5127;SDS011;2582;48.770;9.190;2023-09-12T06:22:14;15.60;;;12.37;;
5127;SDS011;2582;48.770;9.190;2023-09-12T06:24:40;12.17;;;10.97;;
5127;SDS011;2582;48.770;9.190;2023-09-12T06:27:05;13.77;;;10.70;;
5127;SDS011;2582;48.770;9.190;2023-09-12T06:29:31;12.60;;;10.63;;
5127;SDS011;2582;48.770;9.190;2023-09-12T06:31:57;13.43;;;12.23;;
5127;SDS011;2582;48.770;9.190;2023-09-12T06:34:22;13.33;;;11.93;;
5127;SDS011;2582;48.770;9.190;2023-09-12T06:36:48;14.23;;;10.50;;
5127;SDS011;2582;48.770;9.190;2023-09-12T06:39:14;13.53;;;12.13;;
5127;SDS011;2582;48.770;9.190;2023-09-12T06:41:39;19.20;;;12.70;;
5127;SDS011;2582;48.770;9.190;2023-09-12T06:44:05;18.40;;;12.40;;
5127;SDS011;2582;48.770;9.190;2023-09-12T06:46:31;15.10;;;13.53;;
5127;SDS011;2582;48.770;9.190;2023-09-12T06:49:00;13.87;;;12.20;;
5127;SDS011;2582;48.770;9.190;2023-09-12T06:51:27;14.13;;;12.70;;
5127;SDS011;2582;48.770;9.190;2023-09-12T06:53:52;18.73;;;13.13;;
5127;SDS011;2582;48.770;9.190;2023-09-12T06:56:18;13.47;;;12.17;;
5127;SDS011;2582;48.770;9.190;2023-09-12T06:58:44;16.70;;;13.37;;
5127;SDS011;2582;48.770;9.190;2023-09-12T07:01:09;14.13;;;12.60;;
5127;SDS011;2582;48.770;9.190;2023-09-12T07:03:35;12.53;;;10.87;;
5127;SDS011;2582;48.770;9.190;2023-09-12T07:06:01;17.10;;;13.10;;
5127;SDS011;2582;48.770;9.190;2023-09-12T07:08:28;17.57;;;12.90;;
5127;SDS011;2582;48.770;9.190;2023-09-12T07:10:57;16.33;;;12.50;;
5127;SDS011;2582;48.770;9.190;2023-09-12T07:13:24;12.93;;;11.63;;
5127;SDS011;2582;48.770;9.190;2023-09-12T07:15:50;13.40;;;12.10;;
5127;SDS011;2582;48.770;9.190;2023-09-12T07:18:16;13.63;;;12.10;;
5127;SDS011;2582;48.770;9.190;2023-09-12T07:20:42;13.40;;;11.90;;
5127;SDS011;2582;48.770;9.190;2023-09-12T07:23:08;13.00;;;11.63;;
5127;SDS011;2582;48.770;9.190;2023-09-12T07:25:42;14.53;;;11.60;;
5127;SDS011;2582;48.770;9.190;2023-09-12T07:28:08;16.00;;;12.10;;
5127;SDS011;2582;48.770;9.190;2023-09-12T07:30:34;14.10;;;12.00;;
5127;SDS011;2582;48.770;9.190;2023-09-12T07:33:00;16.10;;;13.00;;
5127;SDS011;2582;48.770;9.190;2023-09-12T07:35:27;16.93;;;11.27;;
5127;SDS011;2582;48.770;9.190;2023-09-12T07:37:52;14.03;;;10.73;;
5127;SDS011;2582;48.770;9.190;2023-09-12T07:40:18;13.10;;;11.43;;
5127;SDS011;2582;48.770;9.190;2023-09-12T07:42:44;12.93;;;11.33;;
5127;SDS011;2582;48.770;9.190;2023-09-12T07:45:09;13.97;;;12.70;;
5127;SDS011;2582;48.770;9.190;2023-09-12T07:47:36;13.50;;;12.03;;
5127;SDS011;2582;48.770;9.190;2023-09-12T07:50:02;12.90;;;11.70;;
5127;SDS011;2582;48.770;9.190;2023-09-12T07:52:29;13.20;;;11.87;;
5127;SDS011;2582;48.770;9.190;2023-09-12T07:55:01;12.30;;;11.07;;
5127;SDS011;2582;48.770;9.190;2023-09-12T07:57:28;11.17;;;10.13;;
5127;SDS011;2582;48.770;9.190;2023-09-12T07:59:55;11.60;;;10.63;;
5127;SDS011;2582;48.770;9.190;2023-09-12T08:02:21;12.50;;;10.30;;
5127;SDS011;2582;48.770;9.190;2023-09-12T08:04:49;13.23;;;11.93;;
5127;SDS011;2582;48.770;9.190;2023-09-12T08:07:16;11.80;;;10.53;;
5127;SDS011;2582;48.770;9.190;2023-09-12T08:12:15;11.93;;;10.77;;
5127;SDS011;2582;48.770;9.190;2023-09-12T08:14:41;11.47;;;10.50;;
5127;SDS011;2582;48.770;9.190;2023-09-12T08:17:07;11.73;;;10.20;;
5127;SDS011;2582;48.770;9.190;2023-09-12T08:19:32;11.13;;;9.63;;
5127;SDS011;2582;48.770;9.190;2023-09-12T08:21:58;13.53;;;11.70;;
5127;SDS011;2582;48.770;9.190;2023-09-12T08:24:23;14.47;;;12.10;;
5127;SDS011;2582;48.770;9.190;2023-09-12T08:26:49;13.47;;;11.20;;
5127;SDS011;2582;48.770;9.190;2023-09-12T08:29:15;14.17;;;11.83;;
5127;SDS011;2582;48.770;9.190;2023-09-12T08:31:41;19.10;;;13.07;;
5127;SDS011;2582;48.770;9.190;2023-09-12T08:34:06;13.57;;;11.90;;
5127;SDS011;2582;48.770;9.190;2023-09-12T08:36:32;14.93;;;11.00;;
5127;SDS011;2582;48.770;9.190;2023-09-12T08:38:57;18.20;;;11.80;;
5127;SDS011;2582;48.770;9.190;2023-09-12T08:41:25;12.60;;;11.30;;
5127;SDS011;2582;48.770;9.190;2023-09-12T08:43:51;14.80;;;11.83;;
5127;SDS011;2582;48.770;9.190;2023-09-12T08:46:16;14.43;;;11.60;;
5127;SDS011;2582;48.770;9.190;2023-09-12T08:48:44;12.23;;;10.73;;
5127;SDS011;2582;48.770;9.190;2023-09-12T08:51:11;14.03;;;11.17;;
5127;SDS011;2582;48.770;9.190;2023-09-12T08:53:37;13.47;;;11.00;;
5127;SDS011;2582;48.770;9.190;2023-09-12T08:56:03;13.60;;;10.10;;
5127;SDS011;2582;48.770;9.190;2023-09-12T08:58:31;14.17;;;10.40;;
5127;SDS011;2582;48.770;9.190;2023-09-12T09:00:57;12.00;;;10.80;;
5127;SDS011;2582;48.770;9.190;2023-09-12T09:03:24;12.63;;;11.20;;
5127;SDS011;2582;48.770;9.190;2023-09-12T09:05:51;17.73;;;11.37;;
5127;SDS011;2582;48.770;9.190;2023-09-12T09:08:19;13.10;;;10.93;;
5127;SDS011;2582;48.770;9.190;2023-09-12T09:10:59;11.30;;;10.20;;
5127;SDS011;2582;48.770;9.190;2023-09-12T09:13:28;13.23;;;12.03;;
5127;SDS011;2582;48.770;9.190;2023-09-12T09:18:53;12.73;;;10.70;;
5127;SDS011;2582;48.770;9.190;2023-09-12T09:21:20;14.93;;;11.00;;
5127;SDS011;2582;48.770;9.190;2023-09-12T09:23:49;14.10;;;10.93;;
5127;SDS011;2582;48.770;9.190;2023-09-12T09:26:16;11.00;;;9.97;;
5127;SDS011;2582;48.770;9.190;2023-09-12T09:28:41;16.33;;;11.57;;
5127;SDS011;2582;48.770;9.190;2023-09-12T09:31:11;11.50;;;10.13;;
5127;SDS011;2582;48.770;9.190;2023-09-12T09:33:38;11.33;;;10.10;;
5127;SDS011;2582;48.770;9.190;2023-09-12T09:36:06;13.50;;;11.00;;
5127;SDS011;2582;48.770;9.190;2023-09-12T09:38:34;12.47;;;11.27;;
5127;SDS011;2582;48.770;9.190;2023-09-12T09:41:03;11.47;;;10.33;;
5127;SDS011;2582;48.770;9.190;2023-09-12T09:43:30;15.97;;;10.73;;
5127;SDS011;2582;48.770;9.190;2023-09-12T09:45:57;17.97;;;11.10;;
5127;SDS011;2582;48.770;9.190;2023-09-12T09:48:24;13.23;;;11.90;;
5127;SDS011;2582;48.770;9.190;2023-09-12T09:50:52;14.10;;;11.27;;
5127;SDS011;2582;48.770;9.190;2023-09-12T09:53:36;11.73;;;10.43;;
5127;SDS011;2582;48.770;9.190;2023-09-12T09:56:11;12.50;;;11.20;;
5127;SDS011;2582;48.770;9.190;2023-09-12T09:58:56;11.97;;;10.97;;
5127;SDS011;2582;48.770;9.190;2023-09-12T10:01:28;12.97;;;11.67;;
5127;SDS011;2582;48.770;9.190;2023-09-12T10:03:59;17.20;;;12.20;;
5127;SDS011;2582;48.770;9.190;2023-09-12T10:06:26;13.57;;;11.40;;
5127;SDS011;2582;48.770;9.190;2023-09-12T10:08:53;13.03;;;11.80;;
5127;SDS011;2582;48.770;9.190;2023-09-12T10:11:23;15.77;;;12.53;;
5127;SDS011;2582;48.770;9.190;2023-09-12T10:13:52;12.43;;;11.23;;
5127;SDS011;2582;48.770;9.190;2023-09-12T10:16:24;17.17;;;12.20;;
5127;SDS011;2582;48.770;9.190;2023-09-12T10:21:49;14.40;;;10.60;;
5127;SDS011;2582;48.770;9.190;2023-09-12T10:24:15;13.67;;;12.17;;
5127;SDS011;2582;48.770;9.190;2023-09-12T10:26:41;18.00;;;11.90;;
5127;SDS011;2582;48.770;9.190;2023-09-12T10:29:10;15.60;;;12.33;;
5127;SDS011;2582;48.770;9.190;2023-09-12T10:31:38;14.83;;;11.77;;
5127;SDS011;2582;48.770;9.190;2023-09-12T10:34:04;12.87;;;10.77;;
5127;SDS011;2582;48.770;9.190;2023-09-12T10:36:34;13.17;;;11.80;;
5127;SDS011;2582;48.770;9.190;2023-09-12T10:39:03;15.70;;;11.90;;
5127;SDS011;2582;48.770;9.190;2023-09-12T10:41:30;14.30;;;10.70;;
5127;SDS011;2582;48.770;9.190;2023-09-12T10:43:56;15.33;;;12.00;;
5127;SDS011;2582;48.770;9.190;2023-09-12T10:46:24;14.17;;;11.30;;
5127;SDS011;2582;48.770;9.190;2023-09-12T10:48:50;12.50;;;11.03;;
5127;SDS011;2582;48.770;9.190;2023-09-12T10:51:16;13.20;;;11.30;;
5127;SDS011;2582;48.770;9.190;2023-09-12T10:53:46;11.30;;;10.20;;
5127;SDS011;2582;48.770;9.190;2023-09-12T10:56:16;12.23;;;10.97;;
5127;SDS011;2582;48.770;9.190;2023-09-12T11:01:37;11.77;;;10.60;;
5127;SDS011;2582;48.770;9.190;2023-09-12T11:06:48;12.67;;;10.00;;
5127;SDS011;2582;48.770;9.190;2023-09-12T11:11:44;11.07;;;9.83;;
5127;SDS011;2582;48.770;9.190;2023-09-12T11:14:13;12.30;;;11.20;;
5127;SDS011;2582;48.770;9.190;2023-09-12T11:16:40;10.00;;;8.93;;
5127;SDS011;2582;48.770;9.190;2023-09-12T11:21:45;10.83;;;9.80;;
5127;SDS011;2582;48.770;9.190;2023-09-12T11:24:12;10.93;;;9.40;;
5127;SDS011;2582;48.770;9.190;2023-09-12T11:26:57;9.90;;;9.00;;
5127;SDS011;2582;48.770;9.190;2023-09-12T11:29:37;9.90;;;8.90;;
5127;SDS011;2582;48.770;9.190;2023-09-12T11:32:04;10.97;;;10.00;;
5127;SDS011;2582;48.770;9.190;2023-09-12T11:34:37;11.37;;;9.50;;
5127;SDS011;2582;48.770;9.190;2023-09-12T11:37:03;10.43;;;9.33;;
5127;SDS011;2582;48.770;9.190;2023-09-12T11:39:33;9.47;;;8.00;;
5127;SDS011;2582;48.770;9.190;2023-09-12T11:42:02;9.33;;;8.33;;
5127;SDS011;2582;48.770;9.190;2023-09-12T11:44:28;9.80;;;8.80;;
5127;SDS011;2582;48.770;9.190;2023-09-12T11:46:56;10.83;;;9.70;;
5127;SDS011;2582;48.770;9.190;2023-09-12T11:49:28;10.60;;;9.27;;
5127;SDS011;2582;48.770;9.190;2023-09-12T11:52:00;9.70;;;8.90;;
5127;SDS011;2582;48.770;9.190;2023-09-12T11:54:26;9.07;;;8.37;;
5127;SDS011;2582;48.770;9.190;2023-09-12T11:56:52;9.30;;;8.40;;
5127;SDS011;2582;48.770;9.190;2023-09-12T11:59:28;9.30;;;8.40;;
5127;SDS011;2582;48.770;9.190;2023-09-12T12:01:54;8.87;;;7.97;;
5127;SDS011;2582;48.770;9.190;2023-09-12T12:04:21;9.70;;;8.20;;
5127;SDS011;2582;48.770;9.190;2023-09-12T12:06:47;9.40;;;8.27;;
5127;SDS011;2582;48.770;9.190;2023-09-12T12:09:15;10.70;;;9.10;;
5127;SDS011;2582;48.770;9.190;2023-09-12T12:11:43;9.80;;;8.43;;
5127;SDS011;2582;48.770;9.190;2023-09-12T12:14:10;10.17;;;9.17;;
5127;SDS011;2582;48.770;9.190;2023-09-12T12:16:36;12.67;;;8.80;;
5127;SDS011;2582;48.770;9.190;2023-09-12T12:19:02;9.03;;;8.13;;
5127;SDS011;2582;48.770;9.190;2023-09-12T12:21:28;11.83;;;9.20;;
5127;SDS011;2582;48.770;9.190;2023-09-12T12:24:00;9.07;;;8.30;;
5127;SDS011;2582;48.770;9.190;2023-09-12T12:26:26;12.77;;;7.97;;
5127;SDS011;2582;48.770;9.190;2023-09-12T12:28:52;8.93;;;8.03;;
5127;SDS011;2582;48.770;9.190;2023-09-12T12:31:18;7.70;;;6.90;;
5127;SDS011;2582;48.770;9.190;2023-09-12T12:33:48;12.17;;;8.67;;
5127;SDS011;2582;48.770;9.190;2023-09-12T12:36:14;9.00;;;8.07;;
5127;SDS011;2582;48.770;9.190;2023-09-12T12:38:39;9.47;;;7.63;;
5127;SDS011;2582;48.770;9.190;2023-09-12T12:41:08;8.00;;;7.27;;
5127;SDS011;2582;48.770;9.190;2023-09-12T12:43:34;8.40;;;7.70;;
5127;SDS011;2582;48.770;9.190;2023-09-12T12:46:00;11.73;;;7.90;;
5127;SDS011;2582;48.770;9.190;2023-09-12T12:48:32;8.57;;;7.73;;
5127;SDS011;2582;48.770;9.190;2023-09-12T12:50:59;8.63;;;7.50;;
5127;SDS011;2582;48.770;9.190;2023-09-12T12:53:40;8.07;;;7.40;;
5127;SDS011;2582;48.770;9.190;2023-09-12T12:56:07;8.10;;;7.30;;
5127;SDS011;2582;48.770;9.190;2023-09-12T12:58:33;7.90;;;7.20;;
5127;SDS011;2582;48.770;9.190;2023-09-12T13:01:00;7.30;;;6.60;;
5127;SDS011;2582;48.770;9.190;2023-09-12T13:03:26;10.10;;;8.30;;
5127;SDS011;2582;48.770;9.190;2023-09-12T13:05:51;10.70;;;6.63;;
5127;SDS011;2582;48.770;9.190;2023-09-12T13:08:17;8.43;;;6.47;;
5127;SDS011;2582;48.770;9.190;2023-09-12T13:10:43;7.80;;;6.83;;
5127;SDS011;2582;48.770;9.190;2023-09-12T13:13:09;7.50;;;6.90;;
5127;SDS011;2582;48.770;9.190;2023-09-12T13:15:35;10.73;;;6.57;;
5127;SDS011;2582;48.770;9.190;2023-09-12T13:18:00;9.83;;;7.10;;
5127;SDS011;2582;48.770;9.190;2023-09-12T13:20:26;8.07;;;7.37;;
5127;SDS011;2582;48.770;9.190;2023-09-12T13:22:51;7.40;;;6.80;;
5127;SDS011;2582;48.770;9.190;2023-09-12T13:25:17;7.07;;;6.47;;
5127;SDS011;2582;48.770;9.190;2023-09-12T13:27:42;7.50;;;6.67;;
5127;SDS011;2582;48.770;9.190;2023-09-12T13:30:08;7.70;;;6.90;;
5127;SDS011;2582;48.770;9.190;2023-09-12T13:32:34;7.60;;;6.80;;
5127;SDS011;2582;48.770;9.190;2023-09-12T13:34:59;7.50;;;6.70;;
5127;SDS011;2582;48.770;9.190;2023-09-12T13:37:25;7.33;;;6.73;;
5127;SDS011;2582;48.770;9.190;2023-09-12T13:39:52;7.70;;;6.20;;
5127;SDS011;2582;48.770;9.190;2023-09-12T13:42:18;10.73;;;6.40;;
5127;SDS011;2582;48.770;9.190;2023-09-12T13:44:44;8.97;;;6.80;;
5127;SDS011;2582;48.770;9.190;2023-09-12T13:47:12;7.53;;;6.63;;
5127;SDS011;2582;48.770;9.190;2023-09-12T13:49:38;7.20;;;6.53;;
5127;SDS011;2582;48.770;9.190;2023-09-12T13:52:04;7.00;;;6.30;;
5127;SDS011;2582;48.770;9.190;2023-09-12T13:54:29;8.83;;;6.60;;
5127;SDS011;2582;48.770;9.190;2023-09-12T13:56:55;7.53;;;6.60;;
5127;SDS011;2582;48.770;9.190;2023-09-12T13:59:21;8.83;;;7.93;;
5127;SDS011;2582;48.770;9.190;2023-09-12T14:01:47;12.53;;;7.53;;
5127;SDS011;2582;48.770;9.190;2023-09-12T14:04:12;6.63;;;6.03;;
5127;SDS011;2582;48.770;9.190;2023-09-12T14:06:38;7.03;;;6.43;;
5127;SDS011;2582;48.770;9.190;2023-09-12T14:09:04;8.63;;;6.97;;
5127;SDS011;2582;48.770;9.190;2023-09-12T14:11:30;8.33;;;7.17;;
5127;SDS011;2582;48.770;9.190;2023-09-12T14:13:56;10.53;;;7.10;;
5127;SDS011;2582;48.770;9.190;2023-09-12T14:16:21;9.50;;;7.70;;
5127;SDS011;2582;48.770;9.190;2023-09-12T14:18:47;7.13;;;6.47;;
5127;SDS011;2582;48.770;9.190;2023-09-12T14:21:12;10.13;;;7.10;;
5127;SDS011;2582;48.770;9.190;2023-09-12T14:23:38;10.73;;;7.73;;
5127;SDS011;2582;48.770;9.190;2023-09-12T14:26:03;8.30;;;7.60;;
5127;SDS011;2582;48.770;9.190;2023-09-12T14:28:29;11.30;;;8.10;;
5127;SDS011;2582;48.770;9.190;2023-09-12T14:30:57;8.10;;;7.40;;
5127;SDS011;2582;48.770;9.190;2023-09-12T14:33:22;8.53;;;7.70;;
5127;SDS011;2582;48.770;9.190;2023-09-12T14:35:48;8.70;;;7.60;;
5127;SDS011;2582;48.770;9.190;2023-09-12T14:38:13;8.77;;;7.93;;
5127;SDS011;2582;48.770;9.190;2023-09-12T14:40:39;9.17;;;7.60;;
5127;SDS011;2582;48.770;9.190;2023-09-12T14:43:05;9.80;;;8.07;;
5127;SDS011;2582;48.770;9.190;2023-09-12T14:45:30;9.47;;;8.23;;
5127;SDS011;2582;48.770;9.190;2023-09-12T14:47:58;9.77;;;8.90;;
5127;SDS011;2582;48.770;9.190;2023-09-12T14:50:24;10.43;;;7.00;;
5127;SDS011;2582;48.770;9.190;2023-09-12T14:52:50;9.63;;;7.90;;
5127;SDS011;2582;48.770;9.190;2023-09-12T14:55:16;9.60;;;8.10;;
5127;SDS011;2582;48.770;9.190;2023-09-12T14:57:42;8.27;;;7.33;;
5127;SDS011;2582;48.770;9.190;2023-09-12T15:00:09;8.03;;;7.40;;
5127;SDS011;2582;48.770;9.190;2023-09-12T15:02:36;10.47;;;9.43;;
5127;SDS011;2582;48.770;9.190;2023-09-12T15:05:02;8.13;;;7.30;;
5127;SDS011;2582;48.770;9.190;2023-09-12T15:07:30;8.47;;;7.57;;
5127;SDS011;2582;48.770;9.190;2023-09-12T15:09:57;8.90;;;8.00;;
5127;SDS011;2582;48.770;9.190;2023-09-12T15:12:22;8.33;;;7.63;;
5127;SDS011;2582;48.770;9.190;2023-09-12T15:14:49;9.23;;;7.80;;
5127;SDS011;2582;48.770;9.190;2023-09-12T15:17:16;10.33;;;7.73;;